Time;durP1;ratioP1;P1;durP2;ratioP2;P2;SDS_P1;SDS_P2;PMS_P1;PMS_P2;Temp;Humidity;BMP_temperature;BMP_pressure;BME280_temperature;BME280_humidity;BME280_pressure;Samples;Min_cycle;Max_cycle;Signal;HPM_P1;HPM_P2
2022/07/31 00:00:13;;;;;;;9.57;6.75;;;19.00;90.40;;;;;;5059056;28;20529;-71
2022/07/31 00:02:39;;;;;;;12.70;7.38;;;18.90;90.40;;;;;;5056850;28;20389;-71
2022/07/31 00:05:05;;;;;;;12.02;6.88;;;18.90;90.50;;;;;;5027304;28;20043;-71
2022/07/31 00:07:31;;;;;;;9.70;7.30;;;18.90;90.70;;;;;;5038051;28;20579;-71
2022/07/31 00:09:57;;;;;;;8.90;7.20;;;18.80;90.70;;;;;;5007082;28;20065;-71
2022/07/31 00:12:23;;;;;;;10.30;6.90;;;18.80;90.70;;;;;;5055183;28;20041;-71
2022/07/31 00:14:48;;;;;;;10.20;7.00;;;18.80;90.80;;;;;;5039990;28;20044;-71
2022/07/31 00:17:14;;;;;;;10.25;6.50;;;18.70;90.90;;;;;;5052929;28;20537;-70
2022/07/31 00:19:40;;;;;;;10.18;7.35;;;18.70;90.70;;;;;;5055491;28;20378;-70
2022/07/31 00:22:06;;;;;;;9.57;6.53;;;18.60;90.70;;;;;;5058986;28;20045;-70
2022/07/31 00:24:32;;;;;;;9.77;6.82;;;18.60;90.80;;;;;;5039706;28;20071;-71
2022/07/31 00:26:58;;;;;;;7.90;6.53;;;18.60;90.70;;;;;;5059552;28;20415;-71
2022/07/31 00:29:24;;;;;;;8.02;6.88;;;18.60;90.70;;;;;;5057940;28;20044;-71
2022/07/31 00:31:50;;;;;;;7.45;6.25;;;18.60;90.60;;;;;;5055126;28;20040;-71
2022/07/31 00:34:16;;;;;;;9.77;7.93;;;18.50;90.60;;;;;;5026118;28;20095;-71
2022/07/31 00:36:42;;;;;;;11.80;7.28;;;18.50;90.70;;;;;;5056786;28;20536;-71
2022/07/31 00:39:09;;;;;;;10.75;7.68;;;18.40;90.70;;;;;;5057274;28;20055;-70
2022/07/31 00:41:42;;;;;;;7.82;6.60;;;18.40;90.70;;;;;;5055649;28;20617;-70
2022/07/31 00:44:09;;;;;;;10.55;8.02;;;18.40;90.80;;;;;;5037119;28;20064;-70
2022/07/31 00:46:34;;;;;;;10.70;7.88;;;18.40;90.70;;;;;;5057213;28;20052;-70
2022/07/31 00:49:00;;;;;;;10.60;7.55;;;18.40;90.80;;;;;;5058578;28;20486;-70
2022/07/31 00:51:26;;;;;;;10.68;7.30;;;18.40;90.90;;;;;;5057078;28;20054;-70
2022/07/31 00:53:52;;;;;;;8.68;7.63;;;18.40;91.10;;;;;;5054749;28;20056;-70
2022/07/31 00:56:17;;;;;;;13.63;8.15;;;18.40;91.20;;;;;;5042093;28;20051;-70
2022/07/31 00:58:43;;;;;;;12.50;7.80;;;18.40;91.00;;;;;;5054068;28;20063;-70
2022/07/31 01:01:09;;;;;;;10.82;8.32;;;18.40;90.90;;;;;;5058657;28;20644;-70
2022/07/31 01:03:35;;;;;;;13.05;9.60;;;18.40;91.00;;;;;;5037749;28;20048;-70
2022/07/31 01:06:00;;;;;;;11.25;8.48;;;18.20;91.40;;;;;;5055040;28;20161;-70
2022/07/31 01:08:26;;;;;;;14.60;9.63;;;18.20;91.30;;;;;;5049840;28;20079;-73
2022/07/31 01:11:02;;;;;;;15.55;10.63;;;18.20;91.40;;;;;;5056605;28;20131;-70
2022/07/31 01:13:36;;;;;;;11.93;10.77;;;18.20;91.20;;;;;;5000587;28;20047;-70
2022/07/31 01:16:02;;;;;;;13.27;10.68;;;18.20;91.30;;;;;;5055632;28;20045;-70
2022/07/31 01:18:30;;;;;;;13.95;11.50;;;18.20;91.20;;;;;;5056121;28;20055;-71
2022/07/31 01:20:58;;;;;;;14.20;11.70;;;18.30;91.10;;;;;;5034927;28;20056;-70
2022/07/31 01:23:36;;;;;;;;;;;18.30;91.20;;;;;;5041327;28;20360;-71
2022/07/31 01:26:01;;;;;;;18.42;12.38;;;18.30;91.00;;;;;;5040133;28;19924;-71
2022/07/31 01:29:05;;;;;;;14.52;12.13;;;18.30;91.00;;;;;;5057810;28;20653;-71
2022/07/31 01:32:03;;;;;;;17.02;13.07;;;18.30;90.90;;;;;;5035173;28;20051;-71
2022/07/31 01:34:43;;;;;;;12.68;10.82;;;18.30;91.00;;;;;;5043846;28;20139;-71
2022/07/31 01:37:20;;;;;;;17.58;11.52;;;18.30;90.90;;;;;;5037963;28;20044;-71
2022/07/31 01:39:56;;;;;;;17.85;14.63;;;18.30;90.90;;;;;;5036039;28;20437;-70
2022/07/31 01:42:22;;;;;;;14.48;12.32;;;18.30;91.20;;;;;;5022739;28;20741;-70
2022/07/31 01:44:50;;;;;;;15.35;12.15;;;18.30;91.10;;;;;;5055510;28;20052;-71
2022/07/31 01:47:17;;;;;;;14.90;12.43;;;18.30;91.10;;;;;;5039388;28;20049;-70
2022/07/31 01:49:43;;;;;;;16.00;13.53;;;18.30;91.00;;;;;;5041249;28;20150;-71
2022/07/31 01:52:09;;;;;;;16.23;13.48;;;18.30;91.00;;;;;;5020993;28;20127;-71
2022/07/31 01:54:35;;;;;;;17.55;12.93;;;18.20;91.20;;;;;;5057104;28;20048;-71
2022/07/31 01:57:02;;;;;;;15.43;11.75;;;18.20;91.10;;;;;;5036724;28;20457;-71
2022/07/31 01:59:28;;;;;;;16.77;12.98;;;18.20;91.10;;;;;;5035934;28;20056;-71
2022/07/31 02:01:54;;;;;;;15.68;11.98;;;18.20;91.10;;;;;;5056358;28;20056;-71
2022/07/31 02:04:20;;;;;;;13.65;12.25;;;18.20;91.10;;;;;;5041103;28;20060;-71
2022/07/31 02:06:46;;;;;;;16.13;13.32;;;18.20;91.10;;;;;;5056265;28;20055;-71
2022/07/31 02:09:12;;;;;;;17.10;15.27;;;18.20;91.10;;;;;;5038822;28;20159;-71
2022/07/31 02:11:38;;;;;;;16.50;13.55;;;18.20;91.30;;;;;;5056447;28;20044;-71
2022/07/31 02:14:04;;;;;;;15.73;13.95;;;18.10;91.20;;;;;;5038210;28;20048;-70
2022/07/31 02:16:29;;;;;;;19.58;13.60;;;18.10;91.30;;;;;;5049808;28;20032;-70
2022/07/31 02:18:55;;;;;;;19.23;13.30;;;18.10;91.30;;;;;;5038438;28;20070;-71
2022/07/31 02:21:22;;;;;;;13.50;12.10;;;18.10;91.40;;;;;;5036311;28;20048;-71
2022/07/31 02:23:48;;;;;;;14.85;13.30;;;18.10;91.40;;;;;;5057799;28;20085;-71
2022/07/31 02:26:14;;;;;;;16.17;14.05;;;18.10;91.30;;;;;;5057977;28;20056;-71
2022/07/31 02:28:40;;;;;;;19.00;14.27;;;18.10;91.20;;;;;;5054711;28;20127;-71
2022/07/31 02:31:09;;;;;;;17.05;12.48;;;18.10;91.30;;;;;;5022578;28;20054;-72
2022/07/31 02:33:35;;;;;;;15.65;12.82;;;18.00;91.30;;;;;;5040230;28;20462;-71
2022/07/31 02:36:01;;;;;;;14.70;13.30;;;18.00;91.50;;;;;;5052631;28;20053;-71
2022/07/31 02:38:27;;;;;;;14.73;12.95;;;18.10;91.40;;;;;;5058347;28;20053;-72
2022/07/31 02:40:57;;;;;;;14.50;13.05;;;18.10;91.30;;;;;;5057156;28;20056;-71
2022/07/31 02:43:27;;;;;;;17.45;13.27;;;18.10;91.30;;;;;;5056005;28;20076;-71
2022/07/31 02:45:53;;;;;;;13.70;12.27;;;18.10;91.20;;;;;;5051323;28;20044;-71
2022/07/31 02:48:19;;;;;;;15.10;13.50;;;18.10;91.30;;;;;;5036321;28;20049;-71
2022/07/31 02:50:44;;;;;;;14.27;12.88;;;18.10;91.40;;;;;;5037402;28;20056;-71
2022/07/31 02:53:10;;;;;;;15.75;14.18;;;18.00;91.40;;;;;;5039763;28;20040;-71
2022/07/31 02:55:36;;;;;;;15.15;12.25;;;18.00;91.60;;;;;;5037722;28;20052;-70
2022/07/31 02:58:02;;;;;;;19.38;13.65;;;18.00;91.60;;;;;;5038764;28;20045;-71
2022/07/31 03:00:28;;;;;;;13.68;12.35;;;17.90;91.40;;;;;;5051148;28;20123;-71
2022/07/31 03:02:55;;;;;;;17.83;14.10;;;17.90;91.60;;;;;;5052326;28;20047;-71
2022/07/31 03:05:20;;;;;;;16.00;12.93;;;17.90;91.50;;;;;;5037409;28;20048;-71
2022/07/31 03:07:46;;;;;;;15.40;13.35;;;17.90;91.50;;;;;;5039538;28;20045;-71
2022/07/31 03:10:12;;;;;;;14.32;12.25;;;17.90;91.40;;;;;;5024019;28;20045;-71
2022/07/31 03:12:46;;;;;;;14.90;13.30;;;17.80;91.50;;;;;;5018648;28;20572;-71
2022/07/31 03:15:16;;;;;;;14.50;12.73;;;17.90;91.50;;;;;;5056169;28;20049;-71
2022/07/31 03:17:43;;;;;;;16.30;13.13;;;17.90;91.60;;;;;;5038901;28;20036;-71
2022/07/31 03:20:09;;;;;;;18.52;12.95;;;17.80;91.60;;;;;;5039409;28;20041;-71
2022/07/31 03:22:35;;;;;;;14.77;13.15;;;17.80;91.60;;;;;;5032810;28;20044;-71
2022/07/31 03:25:02;;;;;;;16.58;14.70;;;17.80;91.60;;;;;;5023338;28;20415;-70
2022/07/31 03:27:28;;;;;;;16.05;14.27;;;17.80;91.70;;;;;;5060841;28;20045;-71
2022/07/31 03:29:53;;;;;;;14.13;12.65;;;17.80;91.70;;;;;;5044173;28;20545;-71
2022/07/31 03:32:19;;;;;;;15.35;13.88;;;17.80;91.60;;;;;;5050022;28;20060;-71
2022/07/31 03:34:45;;;;;;;15.63;13.57;;;17.80;91.60;;;;;;5031470;28;20467;-71
2022/07/31 03:37:11;;;;;;;16.38;13.60;;;17.80;91.50;;;;;;5044577;28;20038;-71
2022/07/31 03:39:37;;;;;;;14.93;13.35;;;17.80;91.40;;;;;;5027367;28;20383;-71
2022/07/31 03:42:03;;;;;;;17.00;14.15;;;17.70;91.50;;;;;;5037379;28;20151;-71
2022/07/31 03:44:29;;;;;;;16.42;13.68;;;17.70;91.50;;;;;;5043307;28;20414;-71
2022/07/31 03:46:55;;;;;;;14.13;12.77;;;17.60;91.60;;;;;;5033115;28;20494;-70
2022/07/31 03:49:20;;;;;;;14.40;12.32;;;17.60;91.70;;;;;;5050331;28;20064;-70
2022/07/31 03:51:46;;;;;;;14.15;12.63;;;17.50;91.70;;;;;;5046081;28;20045;-70
2022/07/31 03:54:12;;;;;;;16.08;13.00;;;17.60;92.00;;;;;;5046154;28;20049;-70
2022/07/31 03:56:38;;;;;;;16.15;13.02;;;17.50;91.90;;;;;;5039960;28;20053;-70
2022/07/31 03:59:04;;;;;;;16.58;14.88;;;17.60;91.80;;;;;;5029420;28;20467;-71
2022/07/31 04:01:29;;;;;;;17.23;13.85;;;17.60;91.70;;;;;;5046180;28;20107;-71
2022/07/31 04:03:58;;;;;;;16.35;14.38;;;17.60;91.80;;;;;;5045740;28;20052;-71
2022/07/31 04:06:24;;;;;;;15.15;13.50;;;17.60;92.00;;;;;;5041861;28;20383;-71
2022/07/31 04:08:50;;;;;;;16.15;14.55;;;17.60;91.70;;;;;;5044008;28;20053;-71
2022/07/31 04:11:19;;;;;;;15.48;13.88;;;17.60;91.80;;;;;;5047552;28;20546;-70
2022/07/31 04:13:44;;;;;;;17.27;15.43;;;17.50;91.90;;;;;;5027175;28;20115;-70
2022/07/31 04:16:10;;;;;;;19.25;15.38;;;17.50;91.80;;;;;;5031758;28;20469;-70
2022/07/31 04:18:36;;;;;;;17.65;15.85;;;17.50;91.90;;;;;;5050011;28;20183;-72
2022/07/31 04:21:01;;;;;;;17.85;16.02;;;17.30;92.10;;;;;;4998208;28;20538;-70
2022/07/31 04:23:27;;;;;;;19.25;17.20;;;17.30;92.30;;;;;;5032890;28;20049;-70
2022/07/31 04:25:53;;;;;;;21.33;19.13;;;17.30;92.40;;;;;;5032846;28;20206;-72
2022/07/31 04:28:19;;;;;;;19.48;17.38;;;17.20;92.60;;;;;;5044933;28;20064;-71
2022/07/31 04:30:44;;;;;;;20.60;16.77;;;17.10;92.80;;;;;;5005520;28;20047;-70
2022/07/31 04:33:10;;;;;;;19.88;17.88;;;17.10;92.80;;;;;;5025794;28;20044;-71
2022/07/31 04:35:36;;;;;;;23.60;21.20;;;17.10;92.90;;;;;;5049187;28;20049;-70
2022/07/31 04:38:01;;;;;;;19.23;16.67;;;17.10;92.90;;;;;;5027027;28;20124;-70
2022/07/31 04:40:27;;;;;;;17.85;15.23;;;17.10;92.90;;;;;;5047338;28;20052;-71
2022/07/31 04:42:54;;;;;;;23.38;18.20;;;17.20;92.90;;;;;;5045960;28;20045;-71
2022/07/31 04:45:19;;;;;;;24.63;20.95;;;17.10;92.90;;;;;;5026596;28;20041;-71
2022/07/31 04:47:45;;;;;;;20.45;18.35;;;17.20;92.90;;;;;;5028917;28;20064;-70
2022/07/31 04:50:11;;;;;;;20.90;17.75;;;17.10;92.90;;;;;;5031970;28;20076;-70
2022/07/31 04:52:37;;;;;;;19.25;16.70;;;17.20;92.90;;;;;;5045868;28;20356;-70
2022/07/31 04:55:03;;;;;;;20.02;17.95;;;17.20;92.80;;;;;;5029443;28;20049;-70
2022/07/31 04:57:28;;;;;;;21.40;18.33;;;17.30;92.80;;;;;;5041356;28;20416;-70
2022/07/31 04:59:54;;;;;;;22.48;17.00;;;17.30;92.80;;;;;;5029605;28;20071;-70
2022/07/31 05:02:20;;;;;;;20.85;17.95;;;17.30;92.70;;;;;;5042721;28;20045;-70
2022/07/31 05:04:46;;;;;;;22.55;18.15;;;17.40;92.70;;;;;;5030569;28;20132;-70
2022/07/31 05:07:11;;;;;;;19.10;15.95;;;17.40;92.90;;;;;;5030724;28;20891;-70
2022/07/31 05:09:37;;;;;;;21.92;17.70;;;17.50;92.80;;;;;;5048911;28;20087;-70
2022/07/31 05:12:03;;;;;;;20.48;16.55;;;17.50;92.70;;;;;;5048915;28;20112;-70
2022/07/31 05:14:29;;;;;;;18.83;16.83;;;17.50;92.60;;;;;;5048961;28;20053;-71
2022/07/31 05:16:55;;;;;;;24.02;17.50;;;17.60;92.70;;;;;;5018230;28;20092;-71
2022/07/31 05:19:21;;;;;;;20.48;18.33;;;17.60;92.70;;;;;;5044832;28;20045;-71
2022/07/31 05:21:46;;;;;;;20.88;18.25;;;17.70;92.70;;;;;;5034970;28;20513;-70
2022/07/31 05:24:12;;;;;;;19.40;17.48;;;17.70;92.80;;;;;;5044412;28;20045;-71
2022/07/31 05:26:38;;;;;;;18.83;16.38;;;17.80;92.60;;;;;;5040502;28;20057;-70
2022/07/31 05:29:04;;;;;;;18.08;15.63;;;17.80;92.50;;;;;;5044849;28;20128;-70
2022/07/31 05:31:30;;;;;;;18.23;16.17;;;17.90;92.40;;;;;;5042997;28;20050;-70
2022/07/31 05:33:57;;;;;;;17.67;15.75;;;17.90;92.40;;;;;;5024300;28;20092;-70
2022/07/31 05:36:24;;;;;;;19.02;14.93;;;18.00;92.00;;;;;;5043795;28;20045;-71
2022/07/31 05:38:49;;;;;;;18.85;15.10;;;18.00;92.10;;;;;;5026085;28;20098;-71
2022/07/31 05:41:15;;;;;;;19.95;14.18;;;17.90;92.20;;;;;;5042065;28;20155;-70
2022/07/31 05:43:41;;;;;;;20.05;14.60;;;18.00;92.00;;;;;;5012097;28;20465;-70
2022/07/31 05:46:07;;;;;;;18.50;14.27;;;18.00;91.70;;;;;;5044608;28;20056;-70
2022/07/31 05:48:32;;;;;;;18.33;14.75;;;18.10;91.70;;;;;;5030416;28;20060;-70
2022/07/31 05:50:58;;;;;;;17.20;14.23;;;18.10;91.80;;;;;;5043276;28;20140;-70
2022/07/31 05:53:25;;;;;;;20.67;15.05;;;18.10;91.50;;;;;;5031911;28;20040;-69
2022/07/31 05:55:51;;;;;;;23.48;15.32;;;18.20;91.70;;;;;;5031560;28;20498;-72
2022/07/31 05:58:17;;;;;;;17.05;14.40;;;18.20;91.60;;;;;;5046899;28;20053;-70
2022/07/31 06:00:45;;;;;;;16.98;13.50;;;18.30;91.50;;;;;;5044296;28;20041;-70
2022/07/31 06:03:14;;;;;;;20.25;14.65;;;18.30;91.50;;;;;;5021633;28;20057;-70
2022/07/31 06:05:40;;;;;;;18.50;14.88;;;18.40;91.40;;;;;;5043641;28;20045;-71
2022/07/31 06:08:05;;;;;;;18.67;14.32;;;18.40;91.30;;;;;;5031069;28;20383;-71
2022/07/31 06:10:31;;;;;;;18.63;13.65;;;18.30;91.30;;;;;;5024945;28;20114;-70
2022/07/31 06:12:57;;;;;;;19.95;14.30;;;18.40;91.40;;;;;;5017168;28;20110;-70
2022/07/31 06:15:23;;;;;;;18.55;14.30;;;18.50;91.20;;;;;;5031176;28;20049;-70
2022/07/31 06:17:49;;;;;;;17.08;13.60;;;18.50;91.10;;;;;;5029787;28;20467;-70
2022/07/31 06:20:14;;;;;;;20.48;15.18;;;18.60;91.10;;;;;;5047941;28;20052;-70
2022/07/31 06:22:44;;;;;;;20.70;13.93;;;18.60;90.70;;;;;;5039350;28;20056;-70
2022/07/31 06:25:10;;;;;;;14.25;12.60;;;18.60;90.90;;;;;;5045861;28;20108;-72
2022/07/31 06:27:36;;;;;;;16.60;14.18;;;18.60;90.90;;;;;;5026483;28;20053;-71
2022/07/31 06:30:05;;;;;;;14.35;12.35;;;18.60;90.70;;;;;;5028339;28;20412;-71
2022/07/31 06:32:32;;;;;;;20.35;12.65;;;18.70;90.70;;;;;;5046710;28;20053;-70
2022/07/31 06:34:58;;;;;;;16.75;11.68;;;18.70;90.70;;;;;;5030351;28;20054;-71
2022/07/31 06:37:24;;;;;;;17.38;12.60;;;18.70;90.70;;;;;;5046360;28;20056;-71
2022/07/31 06:39:51;;;;;;;19.88;13.00;;;18.70;90.60;;;;;;5044294;28;20378;-70
2022/07/31 06:42:18;;;;;;;20.15;11.80;;;18.70;90.60;;;;;;5036272;28;20060;-70
2022/07/31 06:44:44;;;;;;;19.13;11.95;;;18.70;90.50;;;;;;5026143;28;20371;-71
2022/07/31 06:47:09;;;;;;;15.70;10.73;;;18.80;90.30;;;;;;5040842;28;20762;-71
2022/07/31 06:49:35;;;;;;;15.50;11.00;;;18.90;90.20;;;;;;5039345;28;20163;-70
2022/07/31 06:52:01;;;;;;;15.68;10.68;;;18.90;90.30;;;;;;5018050;28;20046;-71
2022/07/31 06:54:27;;;;;;;19.48;10.75;;;19.00;90.40;;;;;;5010969;28;20140;-71
2022/07/31 06:56:52;;;;;;;19.45;10.50;;;19.00;90.20;;;;;;5042424;28;20124;-70
2022/07/31 06:59:18;;;;;;;18.40;10.85;;;19.00;90.00;;;;;;5046424;28;20045;-72
2022/07/31 07:01:44;;;;;;;23.15;11.50;;;19.10;89.60;;;;;;5027121;28;20060;-71
2022/07/31 07:04:10;;;;;;;17.35;10.15;;;19.10;88.70;;;;;;5025349;28;20443;-71
2022/07/31 07:06:36;;;;;;;19.00;11.18;;;19.10;88.50;;;;;;5046775;28;20052;-72
2022/07/31 07:09:02;;;;;;;20.20;10.98;;;19.20;88.40;;;;;;5030649;28;20049;-70
2022/07/31 07:11:27;;;;;;;21.67;10.77;;;19.20;87.70;;;;;;5045760;28;20482;-71
2022/07/31 07:13:54;;;;;;;19.90;11.05;;;19.20;87.30;;;;;;5028515;28;20083;-70
2022/07/31 07:16:20;;;;;;;17.95;10.20;;;19.30;87.30;;;;;;5040187;28;20463;-70
2022/07/31 07:18:46;;;;;;;14.30;9.82;;;19.30;87.40;;;;;;5045034;28;20129;-70
2022/07/31 07:21:12;;;;;;;15.10;10.10;;;19.20;86.40;;;;;;5037850;28;20132;-70
2022/07/31 07:23:38;;;;;;;21.55;10.82;;;19.30;85.60;;;;;;5039354;28;20045;-70
2022/07/31 07:26:05;;;;;;;14.90;9.80;;;19.30;85.70;;;;;;5004107;28;20344;-70
2022/07/31 07:28:31;;;;;;;16.00;10.27;;;19.30;85.50;;;;;;5030193;28;20224;-70
2022/07/31 07:30:57;;;;;;;16.10;9.52;;;19.40;85.70;;;;;;5028679;28;20736;-70
2022/07/31 07:33:23;;;;;;;17.35;9.57;;;19.50;85.50;;;;;;5030127;28;20045;-70
2022/07/31 07:35:49;;;;;;;18.67;9.63;;;19.50;85.90;;;;;;5030779;28;20045;-70
2022/07/31 07:38:14;;;;;;;19.35;10.93;;;19.60;86.00;;;;;;5018546;28;20596;-71
2022/07/31 07:40:40;;;;;;;25.35;13.75;;;19.50;86.20;;;;;;5047581;28;20046;-70
2022/07/31 07:43:06;;;;;;;16.88;12.02;;;19.60;86.30;;;;;;5030272;28;20092;-69
2022/07/31 07:45:32;;;;;;;15.60;11.68;;;19.60;86.20;;;;;;5024325;28;20045;-71
2022/07/31 07:47:58;;;;;;;15.35;10.68;;;19.70;86.30;;;;;;5031451;28;20091;-71
2022/07/31 07:50:23;;;;;;;17.15;11.13;;;19.70;85.60;;;;;;5046877;28;20122;-68
2022/07/31 07:52:52;;;;;;;16.60;11.20;;;19.80;86.40;;;;;;5048641;28;20361;-69
2022/07/31 07:55:18;;;;;;;18.50;10.88;;;19.90;85.70;;;;;;5042622;28;20072;-69
2022/07/31 07:57:44;;;;;;;18.38;11.07;;;19.90;85.70;;;;;;5049243;28;20988;-70
2022/07/31 08:00:11;;;;;;;15.00;10.55;;;20.00;85.20;;;;;;5040467;28;20118;-70
2022/07/31 08:02:43;;;;;;;15.55;10.23;;;20.10;85.30;;;;;;5044760;28;20136;-70
2022/07/31 08:05:10;;;;;;;17.52;10.50;;;20.10;85.00;;;;;;5023976;28;20053;-70
2022/07/31 08:07:39;;;;;;;19.05;10.88;;;20.10;84.50;;;;;;5048844;28;20118;-69
2022/07/31 08:10:06;;;;;;;14.90;9.95;;;20.10;84.00;;;;;;5028179;28;20542;-69
2022/07/31 08:12:33;;;;;;;19.27;8.75;;;20.20;84.30;;;;;;5045967;28;20119;-70
2022/07/31 08:15:00;;;;;;;14.18;8.15;;;20.20;84.50;;;;;;5012533;28;20084;-70
2022/07/31 08:17:27;;;;;;;15.45;8.70;;;20.10;83.60;;;;;;5038038;28;20455;-70
2022/07/31 08:19:54;;;;;;;12.75;7.95;;;20.20;83.10;;;;;;5036288;28;20399;-70
2022/07/31 08:22:21;;;;;;;12.32;7.20;;;20.20;82.80;;;;;;5035569;28;20092;-70
2022/07/31 08:24:48;;;;;;;13.43;8.02;;;20.20;83.50;;;;;;5023675;28;20084;-69
2022/07/31 08:27:25;;;;;;;12.55;7.57;;;20.30;83.40;;;;;;5039152;28;20518;-70
2022/07/31 08:29:56;;;;;;;12.00;7.32;;;20.30;83.00;;;;;;5004381;28;20463;-69
2022/07/31 08:32:24;;;;;;;12.45;7.18;;;20.40;83.00;;;;;;5035835;28;20041;-70
2022/07/31 08:34:50;;;;;;;;;;;20.40;81.70;;;;;;5048702;28;20110;-69
2022/07/31 08:37:18;;;;;;;14.98;8.30;;;20.40;81.40;;;;;;5010543;28;19913;-70
2022/07/31 08:39:45;;;;;;;15.18;7.50;;;20.40;81.40;;;;;;5037718;28;20049;-70
2022/07/31 08:42:11;;;;;;;16.45;7.82;;;20.50;81.20;;;;;;5031520;28;20493;-70
2022/07/31 08:44:40;;;;;;;10.90;6.70;;;20.50;80.40;;;;;;5028136;28;20053;-71
2022/07/31 08:47:10;;;;;;;13.73;7.40;;;20.60;79.00;;;;;;5043732;28;20549;-70
2022/07/31 08:49:39;;;;;;;11.38;6.85;;;20.60;79.70;;;;;;5050091;28;20049;-70
2022/07/31 08:52:04;;;;;;;14.90;6.72;;;20.80;80.90;;;;;;5031884;28;20045;-70
2022/07/31 08:54:31;;;;;;;13.45;5.82;;;20.80;76.20;;;;;;5027456;28;20053;-70
2022/07/31 08:56:58;;;;;;;11.23;5.07;;;20.90;74.50;;;;;;5009991;28;20067;-70
2022/07/31 08:59:25;;;;;;;9.63;4.18;;;20.80;73.00;;;;;;5048868;28;20099;-70
2022/07/31 09:01:55;;;;;;;11.10;4.93;;;20.90;73.80;;;;;;5026724;28;20453;-69
2022/07/31 09:04:23;;;;;;;10.55;5.80;;;21.00;72.40;;;;;;5008722;28;20071;-69
2022/07/31 09:06:49;;;;;;;9.15;4.57;;;21.20;74.00;;;;;;5041834;28;20115;-70
2022/07/31 09:09:16;;;;;;;8.15;4.22;;;21.30;70.50;;;;;;5025859;28;20049;-69
2022/07/31 09:11:49;;;;;;;10.20;4.03;;;21.30;68.40;;;;;;5048557;28;20242;-70
2022/07/31 09:14:28;;;;;;;9.43;3.88;;;21.30;68.70;;;;;;5029112;28;20124;-71
2022/07/31 09:16:54;;;;;;;7.03;3.45;;;21.40;69.20;;;;;;5042923;28;20045;-71
2022/07/31 09:19:21;;;;;;;5.97;2.95;;;21.50;68.80;;;;;;5012003;28;20048;-69
2022/07/31 09:21:47;;;;;;;8.38;3.60;;;21.50;69.40;;;;;;5042963;28;20083;-70
2022/07/31 09:24:24;;;;;;;8.55;3.33;;;21.60;69.50;;;;;;5027838;28;20080;-70
2022/07/31 09:26:53;;;;;;;7.60;3.20;;;21.70;68.70;;;;;;5046912;28;20144;-69
2022/07/31 09:29:34;;;;;;;6.93;3.00;;;21.80;69.30;;;;;;5042631;28;20052;-70
2022/07/31 09:32:17;;;;;;;5.95;2.70;;;21.90;69.00;;;;;;5047285;28;20482;-70
2022/07/31 09:34:45;;;;;;;4.78;2.30;;;22.00;68.10;;;;;;5029687;28;20037;-70
2022/07/31 09:37:20;;;;;;;4.07;2.17;;;22.00;67.80;;;;;;5030602;28;20515;-75
2022/07/31 09:39:53;;;;;;;5.07;2.08;;;22.00;63.90;;;;;;5027100;28;20076;-70
2022/07/31 09:42:19;;;;;;;6.65;2.22;;;21.90;65.70;;;;;;5053299;28;20190;-70
2022/07/31 09:44:47;;;;;;;9.18;2.60;;;22.00;66.20;;;;;;5059952;28;20523;-71
2022/07/31 09:47:27;;;;;;;4.65;1.83;;;22.20;65.00;;;;;;5056552;28;20048;-70
2022/07/31 09:49:58;;;;;;;5.43;2.08;;;22.30;63.40;;;;;;5044286;28;20040;-71
2022/07/31 09:52:24;;;;;;;5.25;2.40;;;22.40;63.80;;;;;;5059793;28;20105;-70
2022/07/31 09:55:01;;;;;;;11.85;5.97;;;22.50;63.10;;;;;;5025447;28;20055;-73
2022/07/31 09:57:27;;;;;;;4.10;2.33;;;22.60;64.30;;;;;;5056741;28;20101;-74
2022/07/31 09:59:52;;;;;;;9.45;6.43;;;22.80;60.80;;;;;;5053799;28;20534;-73
2022/07/31 10:02:18;;;;;;;5.40;2.40;;;23.00;62.60;;;;;;5023549;28;20307;-73
2022/07/31 10:04:45;;;;;;;6.75;2.67;;;23.10;59.50;;;;;;5057675;28;20048;-74
2022/07/31 10:07:11;;;;;;;8.57;6.38;;;23.10;60.00;;;;;;5027025;28;20053;-74
2022/07/31 10:09:37;;;;;;;6.32;2.53;;;23.20;60.60;;;;;;5052542;28;20065;-73
2022/07/31 10:12:03;;;;;;;5.03;1.88;;;23.20;57.70;;;;;;5024993;28;20143;-74
2022/07/31 10:14:30;;;;;;;4.55;1.80;;;23.30;58.00;;;;;;5043466;28;20090;-74
2022/07/31 10:16:57;;;;;;;3.47;2.22;;;23.40;57.30;;;;;;5051809;28;20115;-73
2022/07/31 10:19:24;;;;;;;5.20;2.00;;;23.50;57.40;;;;;;5040130;28;20551;-73
2022/07/31 10:21:55;;;;;;;3.92;2.63;;;23.60;58.70;;;;;;5051100;28;20149;-73
2022/07/31 10:24:21;;;;;;;5.13;2.35;;;23.70;57.10;;;;;;5056771;28;20386;-73
2022/07/31 10:26:50;;;;;;;6.13;3.15;;;23.70;58.30;;;;;;5057458;28;20147;-73
2022/07/31 10:29:16;;;;;;;5.72;2.90;;;23.80;57.60;;;;;;5039421;28;20045;-73
2022/07/31 10:31:43;;;;;;;6.00;2.50;;;24.00;58.70;;;;;;5041167;28;20049;-73
2022/07/31 10:34:11;;;;;;;4.22;2.25;;;24.00;56.50;;;;;;5040630;28;20048;-72
2022/07/31 10:36:39;;;;;;;6.50;2.77;;;24.00;56.50;;;;;;5057066;28;20131;-72
2022/07/31 10:39:27;;;;;;;;;;;24.20;58.10;;;;;;5064006;28;20343;-73
2022/07/31 10:42:05;;;;;;;4.88;2.35;;;24.10;56.20;;;;;;5060051;28;20238;-73
2022/07/31 10:44:30;;;;;;;;;;;24.10;55.80;;;;;;5059549;28;20488;-74
2022/07/31 10:46:57;;;;;;;3.20;2.00;;;24.10;55.80;;;;;;5062124;28;19951;-73
2022/07/31 10:49:40;;;;;;;3.42;1.90;;;24.20;56.40;;;;;;5062830;28;20500;-73
2022/07/31 10:52:05;;;;;;;13.40;2.30;;;24.30;55.90;;;;;;5059570;28;20044;-72
2022/07/31 10:55:00;;;;;;;5.70;2.00;;;24.30;55.10;;;;;;5040114;28;20336;-73
2022/07/31 10:57:33;;;;;;;4.80;2.22;;;24.40;56.30;;;;;;5056507;28;20045;-72
2022/07/31 11:00:12;;;;;;;6.22;2.75;;;24.50;56.30;;;;;;5037637;28;20052;-74
2022/07/31 11:02:38;;;;;;;4.05;1.70;;;24.70;54.60;;;;;;5028303;28;20113;-72
2022/07/31 11:05:12;;;;;;;4.30;1.70;;;24.60;51.70;;;;;;5038603;28;20048;-73
2022/07/31 11:07:39;;;;;;;4.30;1.92;;;24.80;52.20;;;;;;5057000;28;20381;-72
2022/07/31 11:10:13;;;;;;;3.70;1.63;;;24.90;53.80;;;;;;5061231;28;20044;-73
2022/07/31 11:12:38;;;;;;;3.30;1.63;;;25.10;51.90;;;;;;5060468;28;20052;-73
2022/07/31 11:15:15;;;;;;;6.13;2.10;;;25.20;53.50;;;;;;5026483;28;20110;-73
2022/07/31 11:17:41;;;;;;;6.05;2.10;;;25.30;53.00;;;;;;5039340;28;20139;-74
2022/07/31 11:20:28;;;;;;;3.92;1.88;;;25.50;49.20;;;;;;5043969;28;20119;-74
2022/07/31 11:23:02;;;;;;;4.82;1.98;;;25.60;49.40;;;;;;5041382;28;20186;-73
2022/07/31 11:25:30;;;;;;;5.53;1.80;;;25.50;49.60;;;;;;5061710;28;20072;-73
2022/07/31 11:28:08;;;;;;;3.40;1.70;;;25.50;50.00;;;;;;5059248;28;20110;-74
2022/07/31 11:30:34;;;;;;;;;;;25.60;48.60;;;;;;5046010;28;20044;-72
2022/07/31 11:33:00;;;;;;;5.60;1.88;;;25.80;48.10;;;;;;5024526;28;19951;-75
2022/07/31 11:35:29;;;;;;;3.17;1.70;;;25.70;49.00;;;;;;5054381;28;20465;-73
2022/07/31 11:37:57;;;;;;;6.22;2.25;;;25.80;48.70;;;;;;5044370;28;20044;-75
2022/07/31 11:40:24;;;;;;;5.10;1.92;;;25.90;49.80;;;;;;5062455;28;20139;-73
2022/07/31 11:42:49;;;;;;;3.28;1.75;;;25.90;48.30;;;;;;5044853;28;20076;-74
2022/07/31 11:45:15;;;;;;;5.47;1.60;;;25.90;48.00;;;;;;5042602;28;20107;-73
2022/07/31 11:47:45;;;;;;;3.13;1.70;;;25.70;48.10;;;;;;5060272;28;20052;-72
2022/07/31 11:50:12;;;;;;;4.10;2.00;;;25.70;48.70;;;;;;5043905;28;20044;-75
2022/07/31 11:52:42;;;;;;;4.05;1.75;;;25.60;48.80;;;;;;5043786;28;20591;-76
2022/07/31 11:55:14;;;;;;;4.65;1.80;;;25.60;48.90;;;;;;5028433;28;20160;-73
2022/07/31 11:57:40;;;;;;;2.03;1.40;;;25.50;48.50;;;;;;5041749;28;20106;-73
2022/07/31 12:00:11;;;;;;;3.25;1.48;;;25.40;49.00;;;;;;5026703;28;20541;-73
2022/07/31 12:02:44;;;;;;;3.25;1.70;;;25.30;48.40;;;;;;5041113;28;20465;-72
2022/07/31 12:05:12;;;;;;;2.63;1.55;;;25.30;49.80;;;;;;5060087;28;20050;-74
2022/07/31 12:07:41;;;;;;;5.95;1.90;;;25.20;49.10;;;;;;5044246;28;20044;-73
2022/07/31 12:10:10;;;;;;;3.80;1.80;;;25.10;48.70;;;;;;5062085;28;20059;-72
2022/07/31 12:12:37;;;;;;;2.70;1.65;;;25.10;49.30;;;;;;5060260;28;20054;-73
2022/07/31 12:15:17;;;;;;;3.42;1.65;;;25.10;50.10;;;;;;5060815;28;20958;-74
2022/07/31 12:17:43;;;;;;;2.75;1.98;;;25.10;50.30;;;;;;5060305;28;20501;-73
2022/07/31 12:20:09;;;;;;;4.63;1.77;;;25.10;50.60;;;;;;5060028;28;20503;-74
2022/07/31 12:22:35;;;;;;;3.95;1.80;;;25.20;50.10;;;;;;5043548;28;20048;-73
2022/07/31 12:25:01;;;;;;;4.47;1.88;;;25.10;50.00;;;;;;5059933;28;20117;-74
2022/07/31 12:27:27;;;;;;;3.53;2.10;;;25.10;51.10;;;;;;5058077;28;20053;-72
2022/07/31 12:29:52;;;;;;;2.47;1.73;;;25.40;50.50;;;;;;5059159;28;20055;-73
2022/07/31 12:32:25;;;;;;;2.72;1.58;;;25.70;50.40;;;;;;5060564;28;20132;-73
2022/07/31 12:35:01;;;;;;;2.60;1.60;;;25.80;49.70;;;;;;5024455;28;20434;-73
2022/07/31 12:37:27;;;;;;;4.55;1.73;;;25.90;48.10;;;;;;5058857;28;20607;-75